createdAt,value
2022-11-10T00:00:29.626Z,113.18
2022-11-10T00:03:04.269Z,106.85
2022-11-10T00:05:31.364Z,110.55
2022-11-10T00:08:01.708Z,111.80
2022-11-10T00:10:28.472Z,100.75
2022-11-10T00:12:55.245Z,94.13
2022-11-10T00:15:40.446Z,82.55
2022-11-10T00:18:07.350Z,111.50
2022-11-10T00:20:34.112Z,86.93
2022-11-10T00:23:00.818Z,96.95
2022-11-10T00:25:32.184Z,85.38
2022-11-10T00:28:00.039Z,98.60
2022-11-10T00:30:27.046Z,80.35
2022-11-10T00:32:53.931Z,69.55
2022-11-10T00:35:20.641Z,77.40
2022-11-10T00:37:50.117Z,88.22
2022-11-10T00:40:17.270Z,77.75
2022-11-10T00:42:44.021Z,72.63
2022-11-10T00:45:10.944Z,69.13
2022-11-10T00:47:37.971Z,69.70
2022-11-10T00:50:05.089Z,80.07
2022-11-10T00:52:34.016Z,67.97
2022-11-10T00:55:01.277Z,75.90
2022-11-10T00:57:27.969Z,73.30
2022-11-10T00:59:54.648Z,76.43
2022-11-10T01:02:21.446Z,86.13
2022-11-10T01:04:48.156Z,96.53
2022-11-10T01:07:15.169Z,81.72
2022-11-10T01:09:42.068Z,86.93
2022-11-10T01:12:09.043Z,93.72
2022-11-10T01:14:35.803Z,78.32
2022-11-10T01:17:02.486Z,75.53
2022-11-10T01:19:29.555Z,83.43
2022-11-10T01:21:56.347Z,70.72
2022-11-10T01:24:23.050Z,69.05
2022-11-10T01:26:50.185Z,70.93
2022-11-10T01:29:16.918Z,67.43
2022-11-10T01:31:44.432Z,66.05
2022-11-10T01:34:11.250Z,64.20
2022-11-10T01:36:38.082Z,60.20
2022-11-10T01:39:04.965Z,62.97
2022-11-10T01:41:31.762Z,82.78
2022-11-10T01:44:13.601Z,103.00
2022-11-10T01:46:40.434Z,78.50
2022-11-10T01:49:07.653Z,90.78
2022-11-10T01:51:51.927Z,76.93
2022-11-10T01:54:28.198Z,96.00
2022-11-10T01:57:00.351Z,104.65
2022-11-10T01:59:30.397Z,123.82
2022-11-10T02:02:09.701Z,95.07
2022-11-10T02:04:37.742Z,88.28
2022-11-10T02:07:04.959Z,85.57
2022-11-10T02:09:31.934Z,97.47
2022-11-10T02:11:58.794Z,104.20
2022-11-10T02:14:26.051Z,93.72
2022-11-10T02:16:52.902Z,98.15
2022-11-10T02:19:22.764Z,96.15
2022-11-10T02:21:49.677Z,95.78
2022-11-10T02:24:16.738Z,92.15
2022-11-10T02:26:57.824Z,91.95
2022-11-10T02:29:25.974Z,87.82
2022-11-10T02:31:53.064Z,99.45
2022-11-10T02:34:19.934Z,91.18
2022-11-10T02:36:46.668Z,83.75
2022-11-10T02:39:13.658Z,96.18
2022-11-10T02:41:40.356Z,92.70
2022-11-10T02:44:08.079Z,94.53
2022-11-10T02:46:37.634Z,86.88
2022-11-10T02:49:04.419Z,131.98
2022-11-10T02:51:31.246Z,96.90
2022-11-10T02:53:58.285Z,126.45
2022-11-10T02:56:25.007Z,89.07
2022-11-10T02:58:51.744Z,89.57
2022-11-10T03:01:18.912Z,92.63
2022-11-10T03:03:45.644Z,86.43
2022-11-10T03:06:12.359Z,76.45
2022-11-10T03:08:39.595Z,73.68
2022-11-10T03:11:06.743Z,76.28
2022-11-10T03:13:51.622Z,78.10
2022-11-10T03:16:20.685Z,78.22
2022-11-10T03:18:47.391Z,82.95
2022-11-10T03:21:14.116Z,75.00
2022-11-10T03:23:40.984Z,80.40
2022-11-10T03:26:08.007Z,76.55
2022-11-10T03:28:35.047Z,72.97
2022-11-10T03:31:01.941Z,77.38
2022-11-10T03:33:28.703Z,74.35
2022-11-10T03:35:55.424Z,70.07
2022-11-10T03:38:22.406Z,76.32
2022-11-10T03:41:17.557Z,62.53
2022-11-10T03:43:37.753Z,69.80
2022-11-10T03:46:04.580Z,73.95
2022-11-10T03:48:31.462Z,63.88
2022-11-10T03:50:58.178Z,66.70
2022-11-10T03:53:25.256Z,66.47
2022-11-10T03:55:52.190Z,78.57
2022-11-10T03:58:18.894Z,64.50
2022-11-10T04:00:45.756Z,74.32
2022-11-10T04:03:12.513Z,64.32
2022-11-10T04:05:58.209Z,62.67
2022-11-10T04:08:43.578Z,68.15
2022-11-10T04:11:10.602Z,71.03
2022-11-10T04:13:55.687Z,79.60
2022-11-10T04:16:23.802Z,82.03
2022-11-10T04:18:50.499Z,83.63
2022-11-10T04:21:17.309Z,78.80
2022-11-10T04:23:44.335Z,98.65
2022-11-10T04:26:32.752Z,90.68
2022-11-10T04:29:03.611Z,105.80
2022-11-10T04:31:33.511Z,120.85
2022-11-10T04:34:00.345Z,122.70
2022-11-10T04:36:29.873Z,112.35
2022-11-10T04:38:56.964Z,109.60
2022-11-10T04:41:25.138Z,106.43
2022-11-10T04:43:52.269Z,87.40
2022-11-10T04:46:39.783Z,86.70
2022-11-10T04:49:07.694Z,77.43
2022-11-10T04:51:37.309Z,84.80
2022-11-10T04:54:05.890Z,80.10
2022-11-10T04:56:34.586Z,84.88
2022-11-10T04:59:01.337Z,76.18
2022-11-10T05:01:28.831Z,68.88
2022-11-10T05:03:55.694Z,72.80
2022-11-10T05:06:24.626Z,65.05
2022-11-10T05:08:51.972Z,66.40
2022-11-10T05:11:19.100Z,62.33
2022-11-10T05:13:46.752Z,62.97
2022-11-10T05:16:14.203Z,65.63
2022-11-10T05:18:41.548Z,67.85
2022-11-10T05:21:08.726Z,62.17
2022-11-10T05:23:38.217Z,68.78
2022-11-10T05:26:14.326Z,64.13
2022-11-10T05:28:42.811Z,64.60
2022-11-10T05:31:09.908Z,64.90
2022-11-10T05:33:37.944Z,66.68
2022-11-10T05:36:06.824Z,59.03
2022-11-10T05:38:37.565Z,67.60
2022-11-10T05:41:07.409Z,59.28
2022-11-10T05:43:34.085Z,58.53
2022-11-10T05:46:00.964Z,67.55
2022-11-10T05:48:27.873Z,100.78
2022-11-10T05:50:54.562Z,111.25
2022-11-10T05:53:21.537Z,121.20
2022-11-10T05:55:48.806Z,194.15
2022-11-10T05:58:15.529Z,376.25
2022-11-10T06:00:42.331Z,374.23
2022-11-10T06:03:20.102Z,321.95
2022-11-10T06:05:47.419Z,221.30
2022-11-10T06:08:14.176Z,204.30
2022-11-10T06:10:41.422Z,204.68
2022-11-10T06:13:08.190Z,179.82
2022-11-10T06:15:35.261Z,145.57
2022-11-10T06:18:02.445Z,150.73
2022-11-10T06:20:29.430Z,145.35
2022-11-10T06:23:26.710Z,134.13
2022-11-10T06:25:56.230Z,124.22
2022-11-10T06:28:23.055Z,105.80
2022-11-10T06:30:49.919Z,116.07
2022-11-10T06:33:16.713Z,109.68
2022-11-10T06:35:45.261Z,86.32
2022-11-10T06:38:12.891Z,77.13
2022-11-10T06:40:39.651Z,71.65
2022-11-10T06:43:06.848Z,73.88
2022-11-10T06:45:33.629Z,72.22
2022-11-10T06:48:07.981Z,72.22
2022-11-10T06:50:35.140Z,71.45
2022-11-10T06:53:02.560Z,78.18
2022-11-10T06:55:30.047Z,82.95
2022-11-10T06:57:57.642Z,80.32
2022-11-10T07:00:26.205Z,80.93
2022-11-10T07:03:04.101Z,74.22
2022-11-10T07:05:32.946Z,76.65
2022-11-10T07:08:07.432Z,74.70
2022-11-10T07:10:35.032Z,76.03
2022-11-10T07:13:03.346Z,74.80
2022-11-10T07:15:30.518Z,81.00
2022-11-10T07:17:57.535Z,73.00
2022-11-10T07:20:26.047Z,81.80
2022-11-10T07:22:58.912Z,85.35
2022-11-10T07:25:26.086Z,85.75
2022-11-10T07:28:00.767Z,79.95
2022-11-10T07:30:29.181Z,87.78
2022-11-10T07:33:04.963Z,77.22
2022-11-10T07:35:32.724Z,87.63
2022-11-10T07:38:04.054Z,94.35
2022-11-10T07:40:31.655Z,114.80
2022-11-10T07:42:58.757Z,118.60
2022-11-10T07:45:26.187Z,149.40
2022-11-10T07:48:01.639Z,181.82
2022-11-10T07:50:28.425Z,147.80
2022-11-10T07:53:17.067Z,138.40
2022-11-10T07:55:45.264Z,118.53
2022-11-10T07:58:14.076Z,96.32
2022-11-10T08:00:41.278Z,90.13
2022-11-10T08:03:15.442Z,90.45
2022-11-10T08:05:42.575Z,93.00
2022-11-10T08:08:12.922Z,88.38
2022-11-10T08:10:40.911Z,101.45
2022-11-10T08:13:10.166Z,107.53
2022-11-10T08:15:37.513Z,118.05
2022-11-10T08:18:21.905Z,140.43
2022-11-10T08:20:48.868Z,152.95
2022-11-10T08:23:16.321Z,203.65
2022-11-10T08:25:44.968Z,229.27
2022-11-10T08:28:15.101Z,296.83
2022-11-10T08:30:43.585Z,237.38
2022-11-10T08:33:12.938Z,229.73
2022-11-10T08:35:47.184Z,184.60
2022-11-10T08:38:22.293Z,154.52
2022-11-10T08:40:49.620Z,137.52
2022-11-10T08:43:17.833Z,149.05
2022-11-10T08:45:45.475Z,151.43
2022-11-10T08:48:18.252Z,164.23
2022-11-10T08:50:45.552Z,174.98
2022-11-10T08:53:21.865Z,175.77
2022-11-10T08:55:49.456Z,133.40
2022-11-10T08:58:19.188Z,134.85
2022-11-10T09:00:46.367Z,144.50
2022-11-10T09:03:21.043Z,144.23
2022-11-10T09:05:53.548Z,136.70
2022-11-10T09:08:23.812Z,140.13
2022-11-10T09:10:51.173Z,122.93
2022-11-10T09:13:19.002Z,123.15
2022-11-10T09:15:46.068Z,127.68
2022-11-10T09:18:14.381Z,137.07
2022-11-10T09:20:41.725Z,135.10
2022-11-10T09:23:20.150Z,121.60
2022-11-10T09:25:52.494Z,113.00
2022-11-10T09:28:20.615Z,101.45
2022-11-10T09:30:49.653Z,102.55
2022-11-10T09:33:17.031Z,95.72
2022-11-10T09:35:44.165Z,97.30
2022-11-10T09:38:12.726Z,94.28
2022-11-10T09:41:02.997Z,95.13
2022-11-10T09:44:05.586Z,107.82
2022-11-10T09:46:48.977Z,97.13
2022-11-10T09:49:24.738Z,98.47
2022-11-10T09:51:52.980Z,97.35
2022-11-10T09:54:47.420Z,94.20
2022-11-10T09:57:18.665Z,98.22
2022-11-10T09:59:45.476Z,95.75
2022-11-10T10:02:15.166Z,85.70
2022-11-10T10:05:00.785Z,95.22
2022-11-10T10:07:31.314Z,95.30
2022-11-10T10:12:48.730Z,96.72
2022-11-10T10:15:31.031Z,97.57
2022-11-10T10:18:16.055Z,96.43
2022-11-10T10:20:57.754Z,98.75
2022-11-10T10:23:47.162Z,99.63
2022-11-10T10:26:21.631Z,99.47
2022-11-10T10:28:50.816Z,85.95
2022-11-10T10:31:24.280Z,86.38
2022-11-10T10:33:52.350Z,83.03
2022-11-10T10:36:29.457Z,89.13
2022-11-10T10:39:11.120Z,78.68
2022-11-10T10:41:38.496Z,91.38
2022-11-10T10:44:14.487Z,80.95
2022-11-10T10:47:02.833Z,69.82
2022-11-10T10:49:31.821Z,77.93
2022-11-10T10:52:16.422Z,80.60
2022-11-10T10:54:43.939Z,70.82
2022-11-10T10:57:31.586Z,74.43
2022-11-10T11:00:31.426Z,60.90
2022-11-10T11:03:06.334Z,63.58
2022-11-10T11:05:33.507Z,70.38
2022-11-10T11:08:01.921Z,65.65
2022-11-10T11:10:35.899Z,68.88
2022-11-10T11:13:27.004Z,68.35
2022-11-10T11:16:02.468Z,72.45
2022-11-10T11:18:31.210Z,55.70
2022-11-10T11:21:22.348Z,61.33
2022-11-10T11:24:25.923Z,66.82
2022-11-10T11:27:11.493Z,61.42
2022-11-10T11:29:54.947Z,58.60
2022-11-10T11:32:33.612Z,60.42
2022-11-10T11:35:27.686Z,65.65
2022-11-10T11:38:23.212Z,63.75
2022-11-10T11:41:28.529Z,68.28
2022-11-10T11:44:13.959Z,67.95
2022-11-10T11:46:43.666Z,73.25
2022-11-10T11:49:42.116Z,79.93
2022-11-10T11:52:18.044Z,59.67
2022-11-10T11:54:49.396Z,62.63
2022-11-10T11:57:38.807Z,68.30
2022-11-10T12:00:14.338Z,65.38
2022-11-10T12:02:58.635Z,56.15
2022-11-10T12:05:43.042Z,56.55
2022-11-10T12:08:17.220Z,53.47
2022-11-10T12:10:49.809Z,61.10
2022-11-10T12:13:36.756Z,54.05
2022-11-10T12:16:31.636Z,48.47
2022-11-10T12:19:21.884Z,51.35
2022-11-10T12:22:11.524Z,52.78
2022-11-10T12:24:53.600Z,42.57
2022-11-10T12:27:30.991Z,59.03
2022-11-10T12:30:12.075Z,51.13
2022-11-10T12:33:14.164Z,55.72
2022-11-10T12:35:43.922Z,52.75
2022-11-10T12:38:22.050Z,48.42
2022-11-10T12:40:51.900Z,49.92
2022-11-10T12:43:35.562Z,45.25
2022-11-10T12:46:08.427Z,51.58
2022-11-10T12:48:48.058Z,50.03
2022-11-10T12:51:25.170Z,61.63
2022-11-10T12:53:52.736Z,53.70
2022-11-10T12:56:25.880Z,59.03
2022-11-10T12:59:20.410Z,61.97
2022-11-10T13:01:52.178Z,62.22
2022-11-10T13:04:20.925Z,57.65
2022-11-10T13:07:10.269Z,56.15
2022-11-10T13:09:43.294Z,49.22
2022-11-10T13:12:24.393Z,51.35
2022-11-10T13:14:51.292Z,39.92
2022-11-10T13:17:26.821Z,51.88
2022-11-10T13:19:59.001Z,51.10
2022-11-10T13:22:37.667Z,47.88
2022-11-10T13:25:36.197Z,53.63
2022-11-10T13:28:04.437Z,45.25
2022-11-10T13:30:41.847Z,49.03
2022-11-10T13:33:41.191Z,47.40
2022-11-10T13:36:08.813Z,50.33
2022-11-10T13:38:43.805Z,48.75
2022-11-10T13:41:16.613Z,45.97
2022-11-10T13:43:54.769Z,43.13
2022-11-10T13:46:33.594Z,37.25
2022-11-10T13:49:39.174Z,37.95
2022-11-10T13:52:25.164Z,44.17
2022-11-10T13:55:16.422Z,42.63
2022-11-10T13:58:04.016Z,39.88
2022-11-10T14:00:35.574Z,38.60
2022-11-10T14:03:04.970Z,38.70
2022-11-10T14:05:32.614Z,38.05
2022-11-10T14:08:23.831Z,38.13
2022-11-10T14:10:52.142Z,42.40
2022-11-10T14:13:48.194Z,36.00
2022-11-10T14:16:19.293Z,34.22
2022-11-10T14:18:57.567Z,37.58
2022-11-10T14:21:39.064Z,39.47
2022-11-10T14:25:04.250Z,40.10
2022-11-10T14:27:35.583Z,39.75
2022-11-10T14:30:07.433Z,39.67
2022-11-10T14:32:34.273Z,37.55
2022-11-10T14:35:02.070Z,40.08
2022-11-10T14:37:30.084Z,46.03
2022-11-10T14:39:59.080Z,40.78
2022-11-10T14:42:29.750Z,38.78
2022-11-10T14:45:19.278Z,35.35
2022-11-10T14:47:57.360Z,34.87
2022-11-10T14:50:31.895Z,36.88
2022-11-10T14:53:12.613Z,33.60
2022-11-10T14:55:44.653Z,33.08
2022-11-10T14:58:35.721Z,34.80
2022-11-10T15:01:04.682Z,36.03
2022-11-10T15:03:41.768Z,35.40
2022-11-10T15:06:11.544Z,39.35
2022-11-10T15:08:40.742Z,36.92
2022-11-10T15:11:08.081Z,38.35
2022-11-10T15:13:39.072Z,40.80
2022-11-10T15:16:28.393Z,41.40
2022-11-10T15:18:57.478Z,39.10
2022-11-10T15:21:34.230Z,40.38
2022-11-10T15:24:05.549Z,42.92
2022-11-10T15:26:38.843Z,58.42
2022-11-10T15:29:06.094Z,48.58
2022-11-10T15:31:34.068Z,53.55
2022-11-10T15:34:04.608Z,43.08
2022-11-10T15:36:34.135Z,39.67
2022-11-10T15:39:25.026Z,44.67
2022-11-10T15:41:58.116Z,47.97
2022-11-10T15:44:28.084Z,37.58
2022-11-10T15:46:56.794Z,39.55
2022-11-10T15:49:35.977Z,46.00
2022-11-10T15:52:06.234Z,38.65
2022-11-10T15:54:42.355Z,37.58
2022-11-10T15:57:14.507Z,44.13
2022-11-10T15:59:41.828Z,40.50
2022-11-10T16:02:19.543Z,37.08
2022-11-10T16:04:46.940Z,34.30
2022-11-10T16:07:13.804Z,37.42
2022-11-10T16:09:40.550Z,32.33
2022-11-10T16:12:18.565Z,39.65
2022-11-10T16:14:49.692Z,38.60
2022-11-10T16:17:17.673Z,46.85
2022-11-10T16:19:45.942Z,50.63
2022-11-10T16:22:13.501Z,40.17
2022-11-10T16:24:41.360Z,41.65
2022-11-10T16:27:12.545Z,41.40
2022-11-10T16:29:40.074Z,38.95
2022-11-10T16:32:07.030Z,36.15
2022-11-10T16:34:33.820Z,39.05
2022-11-10T16:37:00.936Z,38.72
2022-11-10T16:39:27.717Z,44.08
2022-11-10T16:41:54.484Z,43.33
2022-11-10T16:44:25.284Z,42.67
2022-11-10T16:46:58.769Z,47.33
2022-11-10T16:49:29.313Z,41.88
2022-11-10T16:51:56.168Z,36.95
2022-11-10T16:54:23.011Z,52.88
2022-11-10T16:56:49.810Z,43.30
2022-11-10T16:59:17.041Z,45.72
2022-11-10T17:01:45.667Z,45.20
2022-11-10T17:04:18.428Z,44.35
2022-11-10T17:06:45.797Z,44.60
2022-11-10T17:09:20.058Z,39.60
2022-11-10T17:11:47.125Z,33.63
2022-11-10T17:14:14.392Z,37.88
2022-11-10T17:16:44.158Z,35.33
2022-11-10T17:19:23.528Z,38.40
2022-11-10T17:21:51.372Z,46.30
2022-11-10T17:24:18.793Z,39.53
2022-11-10T17:26:46.193Z,37.38
2022-11-10T17:29:24.538Z,37.05
2022-11-10T17:31:51.388Z,39.45
2022-11-10T17:34:18.232Z,39.50
2022-11-10T17:36:44.957Z,44.72
2022-11-10T17:39:16.690Z,57.13
2022-11-10T17:41:43.814Z,57.97
2022-11-10T17:44:15.516Z,68.38
2022-11-10T17:46:43.199Z,50.42
2022-11-10T17:49:10.024Z,45.25
2022-11-10T17:51:37.238Z,46.10
2022-11-10T17:54:04.443Z,40.53
2022-11-10T17:56:32.179Z,39.40
2022-11-10T17:58:58.962Z,41.22
2022-11-10T18:01:25.845Z,43.65
2022-11-10T18:03:52.605Z,48.33
2022-11-10T18:06:20.910Z,44.70
2022-11-10T18:08:48.712Z,44.60
2022-11-10T18:11:17.843Z,42.95
2022-11-10T18:13:45.028Z,47.85
2022-11-10T18:16:14.081Z,44.47
2022-11-10T18:18:41.402Z,40.85
2022-11-10T18:21:09.946Z,108.38
2022-11-10T18:23:36.636Z,58.88
2022-11-10T18:26:08.261Z,47.88
2022-11-10T18:28:35.836Z,44.92
2022-11-10T18:31:10.844Z,42.22
2022-11-10T18:33:37.607Z,71.15
2022-11-10T18:36:04.863Z,94.93
2022-11-10T18:38:31.718Z,53.25
2022-11-10T18:41:25.670Z,69.35
2022-11-10T18:43:52.647Z,75.70
2022-11-10T18:46:19.455Z,47.80
2022-11-10T18:48:46.867Z,46.03
2022-11-10T18:51:15.652Z,43.13
2022-11-10T18:53:42.403Z,45.42
2022-11-10T18:56:09.251Z,44.63
2022-11-10T18:58:35.958Z,44.13
2022-11-10T19:01:07.467Z,42.97
2022-11-10T19:03:35.148Z,41.38
2022-11-10T19:06:01.865Z,38.88
2022-11-10T19:08:29.071Z,41.85
2022-11-10T19:10:56.834Z,90.72
2022-11-10T19:13:23.978Z,195.10
2022-11-10T19:15:51.036Z,471.50
2022-11-10T19:18:17.839Z,489.17
2022-11-10T19:20:44.536Z,578.35
2022-11-10T19:23:11.562Z,279.73
2022-11-10T19:25:38.359Z,111.55
2022-11-10T19:28:05.156Z,91.13
2022-11-10T19:30:31.953Z,52.83
2022-11-10T19:32:58.775Z,147.95
2022-11-10T19:35:25.467Z,212.32
2022-11-10T19:37:54.140Z,208.38
2022-11-10T19:40:22.445Z,101.50
2022-11-10T19:42:49.519Z,97.72
2022-11-10T19:45:16.764Z,84.70
2022-11-10T19:47:44.035Z,65.53
2022-11-10T19:50:10.846Z,60.22
2022-11-10T19:52:37.586Z,51.22
2022-11-10T19:55:04.615Z,53.05
2022-11-10T19:57:31.405Z,47.50
2022-11-10T19:59:58.142Z,47.38
2022-11-10T20:02:24.912Z,47.05
2022-11-10T20:05:10.218Z,52.13
2022-11-10T20:07:55.589Z,47.90
2022-11-10T20:10:22.457Z,49.15
2022-11-10T20:12:49.609Z,53.85
2022-11-10T20:15:16.551Z,44.00
2022-11-10T20:17:43.251Z,50.28
2022-11-10T20:20:10.445Z,46.03
2022-11-10T20:22:37.192Z,46.20
2022-11-10T20:25:04.408Z,45.47
2022-11-10T20:27:31.606Z,44.85
2022-11-10T20:30:00.157Z,45.38
2022-11-10T20:32:27.792Z,45.90
2022-11-10T20:34:54.636Z,50.15
2022-11-10T20:37:21.799Z,41.55
2022-11-10T20:39:48.551Z,50.33
2022-11-10T20:42:15.309Z,46.25
2022-11-10T20:44:42.163Z,51.50
2022-11-10T20:47:09.058Z,40.03
2022-11-10T20:49:35.975Z,48.80
2022-11-10T20:52:03.384Z,44.50
2022-11-10T20:54:30.355Z,49.20
2022-11-10T20:56:57.124Z,44.90
2022-11-10T20:59:24.025Z,46.58
2022-11-10T21:01:50.868Z,56.03
2022-11-10T21:04:18.587Z,54.28
2022-11-10T21:06:47.152Z,57.47
2022-11-10T21:09:14.296Z,48.58
2022-11-10T21:11:59.818Z,57.28
2022-11-10T21:14:26.718Z,49.75
2022-11-10T21:16:56.843Z,58.35
2022-11-10T21:19:25.225Z,59.80
2022-11-10T21:21:52.338Z,54.17
2022-11-10T21:24:19.705Z,55.80
2022-11-10T21:26:46.477Z,62.47
2022-11-10T21:29:14.791Z,58.80
2022-11-10T21:31:43.024Z,58.35
2022-11-10T21:34:09.995Z,61.17
2022-11-10T21:36:36.941Z,59.65
2022-11-10T21:39:03.770Z,57.80
2022-11-10T21:41:30.545Z,58.55
2022-11-10T21:43:57.843Z,60.33
2022-11-10T21:46:27.002Z,54.90
2022-11-10T21:48:54.804Z,58.83
2022-11-10T21:51:21.748Z,48.33
2022-11-10T21:53:48.566Z,50.38
2022-11-10T21:56:15.322Z,47.38
2022-11-10T21:58:42.222Z,58.63
2022-11-10T22:01:19.129Z,56.42
2022-11-10T22:03:46.382Z,61.72
2022-11-10T22:06:18.202Z,58.20
2022-11-10T22:08:48.297Z,58.20
2022-11-10T22:11:36.629Z,60.75
2022-11-10T22:14:19.815Z,78.07
2022-11-10T22:17:07.282Z,69.82
2022-11-10T22:19:35.349Z,61.72
2022-11-10T22:22:04.121Z,56.88
2022-11-10T22:24:32.285Z,60.58
2022-11-10T22:27:03.747Z,54.60
2022-11-10T22:29:33.835Z,56.75
2022-11-10T22:32:01.772Z,64.32
2022-11-10T22:34:28.635Z,59.50
2022-11-10T22:36:55.372Z,57.08
2022-11-10T22:39:22.601Z,55.78
2022-11-10T22:42:09.493Z,50.15
2022-11-10T22:44:36.541Z,55.88
2022-11-10T22:47:03.416Z,51.60
2022-11-10T22:49:31.612Z,51.72
2022-11-10T22:51:58.356Z,56.15
2022-11-10T22:54:26.768Z,56.42
2022-11-10T22:56:53.537Z,52.53
2022-11-10T22:59:21.766Z,54.90
2022-11-10T23:01:48.546Z,78.45
2022-11-10T23:04:16.158Z,82.22
2022-11-10T23:06:43.248Z,75.38
2022-11-10T23:09:10.128Z,77.15
2022-11-10T23:11:36.943Z,75.00
2022-11-10T23:14:06.054Z,73.22
2022-11-10T23:16:34.878Z,73.35
2022-11-10T23:19:03.412Z,71.45
2022-11-10T23:21:31.022Z,66.80
2022-11-10T23:23:57.972Z,73.50
2022-11-10T23:26:30.228Z,72.68
2022-11-10T23:28:57.042Z,68.10
2022-11-10T23:31:26.590Z,69.07
2022-11-10T23:33:55.342Z,66.70
2022-11-10T23:36:24.863Z,68.60
2022-11-10T23:38:52.213Z,70.20
2022-11-10T23:41:20.884Z,75.45
2022-11-10T23:43:47.952Z,71.85
2022-11-10T23:46:15.244Z,79.88
2022-11-10T23:48:42.575Z,89.80
2022-11-10T23:51:12.254Z,83.80
2022-11-10T23:53:39.034Z,122.23
2022-11-10T23:56:09.592Z,125.22
